createdAt,value
2019-05-10T00:00:55.696Z,95.22
2019-05-10T00:03:42.795Z,95.12
2019-05-10T00:06:27.244Z,95.25
2019-05-10T00:08:52.924Z,94.57
2019-05-10T00:11:38.472Z,94.38
2019-05-10T00:14:13.250Z,94.54
2019-05-10T00:16:39.088Z,94.89
2019-05-10T00:19:04.989Z,94.96
2019-05-10T00:21:30.818Z,94.56
2019-05-10T00:23:56.870Z,94.57
2019-05-10T00:26:22.674Z,94.99
2019-05-10T00:28:48.494Z,95.03
2019-05-10T00:31:14.272Z,94.90
2019-05-10T00:33:40.078Z,95.30
2019-05-10T00:36:06.110Z,95.50
2019-05-10T00:38:31.946Z,95.50
2019-05-10T00:40:57.736Z,95.85
2019-05-10T00:43:23.786Z,95.92
2019-05-10T00:45:49.612Z,95.71
2019-05-10T00:48:15.387Z,96.11
2019-05-10T00:50:41.192Z,96.12
2019-05-10T00:53:06.985Z,96.24
2019-05-10T00:55:33.074Z,96.30
2019-05-10T00:57:58.884Z,96.08
2019-05-10T01:00:24.689Z,96.23
2019-05-10T01:02:50.497Z,96.39
2019-05-10T01:05:16.296Z,96.54
2019-05-10T01:07:42.113Z,96.76
2019-05-10T01:10:08.101Z,96.38
2019-05-10T01:12:34.203Z,96.60
2019-05-10T01:15:00.014Z,96.54
2019-05-10T01:17:26.107Z,96.44
2019-05-10T01:19:52.006Z,96.57
2019-05-10T01:22:18.122Z,96.24
2019-05-10T01:24:43.992Z,96.54
2019-05-10T01:27:10.031Z,96.09
2019-05-10T01:29:35.857Z,96.36
2019-05-10T01:32:01.842Z,95.83
2019-05-10T01:34:27.951Z,95.94
2019-05-10T01:36:53.990Z,95.90
2019-05-10T01:39:20.049Z,95.98
2019-05-10T01:41:46.095Z,96.13
2019-05-10T01:44:11.899Z,96.33
2019-05-10T01:46:37.725Z,96.05
2019-05-10T01:49:03.529Z,96.16
2019-05-10T01:51:29.313Z,96.10
2019-05-10T01:53:58.111Z,96.22
2019-05-10T01:56:24.250Z,96.29
2019-05-10T01:58:53.215Z,96.44
2019-05-10T02:01:19.295Z,96.45
2019-05-10T02:03:48.420Z,96.27
2019-05-10T02:06:14.221Z,96.13
2019-05-10T02:08:43.028Z,96.47
2019-05-10T02:11:08.821Z,96.70
2019-05-10T02:13:34.621Z,96.68
2019-05-10T02:16:00.655Z,96.93
2019-05-10T02:18:26.449Z,96.76
2019-05-10T02:20:55.547Z,96.73
2019-05-10T02:23:21.344Z,96.66
2019-05-10T02:25:50.229Z,96.71
2019-05-10T02:28:16.003Z,96.97
2019-05-10T02:30:44.593Z,97.01
2019-05-10T02:33:10.370Z,96.51
2019-05-10T02:35:38.008Z,96.94
2019-05-10T02:38:03.916Z,97.44
2019-05-10T02:40:32.791Z,97.71
2019-05-10T02:42:58.849Z,97.98
2019-05-10T02:45:29.571Z,98.18
2019-05-10T02:47:55.441Z,98.07
2019-05-10T02:50:21.221Z,98.27
2019-05-10T02:52:47.029Z,98.34
2019-05-10T02:55:12.960Z,98.22
2019-05-10T02:57:41.983Z,98.46
2019-05-10T03:00:08.596Z,98.43
2019-05-10T03:02:34.864Z,98.38
2019-05-10T03:05:01.397Z,98.73
2019-05-10T03:07:34.000Z,98.79
2019-05-10T03:10:00.935Z,98.45
2019-05-10T03:12:27.028Z,98.54
2019-05-10T03:14:55.799Z,99.05
2019-05-10T03:17:22.303Z,99.18
2019-05-10T03:19:50.920Z,99.11
2019-05-10T03:22:17.045Z,99.34
2019-05-10T03:24:43.097Z,98.49
2019-05-10T03:27:08.897Z,98.39
2019-05-10T03:29:34.693Z,98.40
2019-05-10T03:32:00.612Z,98.84
2019-05-10T03:34:26.394Z,99.28
2019-05-10T03:36:52.302Z,99.25
2019-05-10T03:39:21.335Z,98.14
2019-05-10T03:41:47.170Z,98.20
2019-05-10T03:44:16.224Z,97.80
2019-05-10T03:46:42.292Z,97.42
2019-05-10T03:49:09.121Z,98.10
2019-05-10T03:51:35.159Z,98.83
2019-05-10T03:54:03.981Z,99.49
2019-05-10T03:56:30.132Z,99.81
2019-05-10T03:58:58.793Z,98.78
2019-05-10T04:01:24.797Z,97.14
2019-05-10T04:03:50.894Z,96.78
2019-05-10T04:06:16.683Z,97.08
2019-05-10T04:08:42.511Z,97.27
2019-05-10T04:11:11.204Z,97.65
2019-05-10T04:13:37.006Z,97.91
2019-05-10T04:16:05.571Z,98.07
2019-05-10T04:18:31.650Z,98.72
2019-05-10T04:20:59.291Z,99.00
2019-05-10T04:23:25.113Z,99.02
2019-05-10T04:25:50.870Z,98.77
2019-05-10T04:28:16.914Z,98.96
2019-05-10T04:30:43.634Z,98.65
2019-05-10T04:33:13.024Z,98.43
2019-05-10T04:35:38.829Z,97.65
2019-05-10T04:38:07.378Z,98.01
2019-05-10T04:40:33.200Z,98.40
2019-05-10T04:43:02.038Z,98.37
2019-05-10T04:45:27.879Z,98.66
2019-05-10T04:47:57.045Z,98.70
2019-05-10T04:50:22.841Z,97.22
2019-05-10T04:52:51.837Z,96.42
2019-05-10T04:55:17.898Z,95.87
2019-05-10T04:57:50.436Z,95.03
2019-05-10T05:00:15.057Z,94.07
2019-05-10T05:02:41.144Z,93.11
2019-05-10T05:05:07.448Z,92.79
2019-05-10T05:07:36.286Z,92.90
2019-05-10T05:10:04.791Z,93.08
2019-05-10T05:12:30.577Z,92.77
2019-05-10T05:14:56.389Z,92.08
2019-05-10T05:17:22.169Z,92.58
2019-05-10T05:19:48.234Z,93.22
2019-05-10T05:22:14.034Z,93.47
2019-05-10T05:24:42.841Z,93.05
2019-05-10T05:27:08.759Z,92.71
2019-05-10T05:29:37.597Z,92.49
2019-05-10T05:32:03.833Z,91.56
2019-05-10T05:34:29.722Z,91.64
2019-05-10T05:36:55.759Z,90.73
2019-05-10T05:39:24.563Z,91.28
2019-05-10T05:41:52.157Z,92.04
2019-05-10T05:44:26.085Z,92.06
2019-05-10T05:46:49.091Z,89.31
2019-05-10T05:49:14.880Z,89.71
2019-05-10T05:51:40.749Z,88.92
2019-05-10T05:54:06.859Z,87.40
2019-05-10T05:56:32.954Z,87.40
2019-05-10T05:58:58.782Z,88.12
2019-05-10T06:01:29.493Z,86.20
2019-05-10T06:04:00.204Z,85.73
2019-05-10T06:06:23.694Z,85.91
2019-05-10T06:08:54.100Z,83.39
2019-05-10T06:11:17.551Z,82.06
2019-05-10T06:13:43.373Z,82.01
2019-05-10T06:16:14.565Z,82.29
2019-05-10T06:18:41.633Z,80.75
2019-05-10T06:21:07.508Z,80.08
2019-05-10T06:23:35.303Z,80.17
2019-05-10T06:26:00.996Z,81.99
2019-05-10T06:28:56.499Z,81.48
2019-05-10T06:30:55.094Z,81.61
2019-05-10T06:33:20.916Z,82.39
2019-05-10T06:35:46.981Z,80.54
2019-05-10T06:38:13.077Z,78.16
2019-05-10T06:40:46.306Z,79.21
2019-05-10T06:43:13.491Z,79.37
2019-05-10T06:45:35.116Z,80.47
2019-05-10T06:48:00.960Z,81.18
2019-05-10T06:50:30.143Z,81.16
2019-05-10T06:53:00.494Z,80.43
2019-05-10T06:55:25.607Z,78.75
2019-05-10T06:57:59.510Z,78.14
2019-05-10T07:00:19.529Z,78.64
2019-05-10T07:02:45.304Z,78.26
2019-05-10T07:05:11.204Z,74.89
2019-05-10T07:07:45.428Z,73.34
2019-05-10T07:10:17.918Z,74.71
2019-05-10T07:12:34.663Z,74.23
2019-05-10T07:15:03.351Z,72.25
2019-05-10T07:17:28.420Z,74.33
2019-05-10T07:19:55.393Z,74.33
2019-05-10T07:22:26.288Z,72.97
2019-05-10T07:24:48.957Z,71.73
2019-05-10T07:27:14.741Z,71.86
2019-05-10T07:29:42.989Z,72.69
2019-05-10T07:32:08.488Z,71.73
2019-05-10T07:34:37.331Z,72.13
2019-05-10T07:37:03.409Z,72.25
2019-05-10T07:39:32.640Z,72.17
2019-05-10T07:42:00.421Z,69.26
2019-05-10T07:44:26.702Z,68.61
2019-05-10T07:46:56.369Z,69.30
2019-05-10T07:49:23.974Z,70.88
2019-05-10T07:51:48.505Z,70.56
2019-05-10T07:54:14.555Z,70.37
2019-05-10T07:56:45.885Z,68.24
2019-05-10T07:59:08.318Z,65.62
2019-05-10T08:01:34.942Z,64.78
2019-05-10T08:04:00.842Z,64.36
2019-05-10T08:06:33.876Z,63.35
2019-05-10T08:08:55.601Z,63.47
2019-05-10T08:11:22.593Z,61.97
2019-05-10T08:13:48.640Z,60.17
2019-05-10T08:16:22.727Z,60.46
2019-05-10T08:18:45.265Z,59.94
2019-05-10T08:21:21.825Z,58.27
2019-05-10T08:23:40.996Z,57.40
2019-05-10T08:26:10.953Z,58.92
2019-05-10T08:28:37.844Z,57.55
2019-05-10T08:31:02.578Z,57.88
2019-05-10T08:33:28.482Z,56.32
2019-05-10T08:36:00.506Z,55.24
2019-05-10T08:38:22.092Z,56.40
2019-05-10T08:40:48.148Z,55.25
2019-05-10T08:43:16.641Z,54.33
2019-05-10T08:45:45.049Z,56.22
2019-05-10T08:48:09.668Z,57.57
2019-05-10T08:50:49.331Z,57.88
2019-05-10T08:53:10.585Z,57.09
2019-05-10T08:55:32.103Z,54.95
2019-05-10T08:57:58.031Z,54.11
2019-05-10T09:00:41.739Z,54.02
2019-05-10T09:02:52.183Z,54.47
2019-05-10T09:05:22.642Z,52.63
2019-05-10T09:07:45.733Z,52.24
2019-05-10T09:10:12.889Z,54.26
2019-05-10T09:12:41.764Z,52.55
2019-05-10T09:15:10.327Z,54.35
2019-05-10T09:17:35.221Z,52.62
2019-05-10T09:20:02.704Z,49.59
2019-05-10T09:22:33.502Z,50.07
2019-05-10T09:24:56.298Z,50.61
2019-05-10T09:27:22.489Z,48.63
2019-05-10T09:29:48.558Z,50.42
2019-05-10T09:32:14.337Z,50.52
2019-05-10T09:34:42.664Z,50.83
2019-05-10T09:37:13.352Z,51.09
2019-05-10T09:39:36.086Z,49.08
2019-05-10T09:42:07.711Z,50.52
2019-05-10T09:44:29.897Z,49.73
2019-05-10T09:46:55.696Z,49.75
2019-05-10T09:49:23.214Z,49.46
2019-05-10T09:51:49.221Z,51.61
2019-05-10T09:54:15.009Z,51.53
2019-05-10T09:56:45.833Z,51.68
2019-05-10T09:59:11.962Z,52.05
2019-05-10T10:01:38.025Z,52.19
2019-05-10T10:04:03.841Z,53.23
2019-05-10T10:06:32.402Z,53.40
2019-05-10T10:09:00.722Z,55.33
2019-05-10T10:11:27.858Z,57.73
2019-05-10T10:13:59.202Z,57.85
2019-05-10T10:16:21.373Z,56.50
2019-05-10T10:18:47.757Z,57.67
2019-05-10T10:21:18.847Z,57.27
2019-05-10T10:23:41.639Z,57.10
2019-05-10T10:26:07.465Z,57.02
2019-05-10T10:28:36.436Z,57.68
2019-05-10T10:31:05.330Z,57.00
2019-05-10T10:33:29.302Z,57.18
2019-05-10T10:36:04.066Z,59.52
2019-05-10T10:38:23.050Z,58.27
2019-05-10T10:40:49.123Z,55.77
2019-05-10T10:43:18.042Z,56.83
2019-05-10T10:45:44.154Z,57.03
2019-05-10T10:48:12.710Z,56.29
2019-05-10T10:50:37.662Z,56.83
2019-05-10T10:53:03.456Z,56.08
2019-05-10T10:55:33.587Z,54.78
2019-05-10T10:57:57.746Z,54.60
2019-05-10T11:00:34.266Z,53.85
2019-05-10T11:03:01.287Z,54.10
2019-05-10T11:05:27.344Z,51.23
2019-05-10T11:07:53.395Z,50.48
2019-05-10T11:10:23.007Z,52.25
2019-05-10T11:12:51.121Z,53.46
2019-05-10T11:15:22.029Z,53.68
2019-05-10T11:17:44.668Z,53.39
2019-05-10T11:20:11.489Z,54.03
2019-05-10T11:22:41.981Z,55.01
2019-05-10T11:25:09.666Z,54.61
2019-05-10T11:27:33.663Z,54.51
2019-05-10T11:30:00.941Z,59.69
2019-05-10T11:32:27.148Z,63.81
2019-05-10T11:34:52.956Z,65.83
2019-05-10T11:37:30.273Z,69.15
2019-05-10T11:39:47.053Z,68.83
2019-05-10T11:42:15.538Z,66.74
2019-05-10T11:44:49.377Z,64.48
2019-05-10T11:47:22.498Z,64.49
2019-05-10T11:49:36.643Z,63.63
2019-05-10T11:52:02.435Z,63.17
2019-05-10T11:54:28.218Z,62.40
2019-05-10T11:56:58.484Z,61.78
2019-05-10T11:59:22.009Z,61.96
2019-05-10T12:04:24.055Z,63.66
2019-05-10T12:06:49.921Z,64.72
2019-05-10T12:09:12.575Z,65.50
2019-05-10T12:11:43.101Z,65.23
2019-05-10T12:14:06.181Z,66.00
2019-05-10T12:16:33.414Z,65.42
2019-05-10T12:19:07.144Z,64.36
2019-05-10T12:21:27.529Z,64.01
2019-05-10T12:23:56.398Z,65.14
2019-05-10T12:26:03.777Z,62.48
2019-05-10T12:28:50.899Z,63.73
2019-05-10T12:31:17.255Z,62.99
2019-05-10T12:33:45.479Z,62.34
2019-05-10T12:36:22.398Z,58.96
2019-05-10T12:38:38.893Z,59.52
2019-05-10T12:41:05.513Z,60.44
2019-05-10T12:43:31.486Z,58.92
2019-05-10T12:45:57.314Z,58.36
2019-05-10T12:48:23.710Z,58.69
2019-05-10T12:50:52.256Z,58.81
2019-05-10T12:53:18.490Z,59.99
2019-05-10T12:55:44.456Z,59.44
2019-05-10T12:58:10.263Z,59.82
2019-05-10T13:00:36.040Z,60.76
2019-05-10T13:03:12.340Z,59.91
2019-05-10T13:05:31.926Z,59.36
2019-05-10T13:07:57.833Z,59.33
2019-05-10T13:10:23.704Z,57.43
2019-05-10T13:12:49.814Z,57.95
2019-05-10T13:15:15.795Z,58.40
2019-05-10T13:17:50.701Z,59.32
2019-05-10T13:20:10.218Z,59.48
2019-05-10T13:22:39.139Z,58.66
2019-05-10T13:25:05.849Z,59.46
2019-05-10T13:27:31.654Z,60.19
2019-05-10T13:29:57.440Z,60.76
2019-05-10T13:32:23.276Z,61.09
2019-05-10T13:34:49.350Z,59.57
2019-05-10T13:37:23.370Z,62.14
2019-05-10T13:39:43.189Z,61.79
2019-05-10T13:42:09.695Z,61.03
2019-05-10T13:44:37.087Z,62.01
2019-05-10T13:47:05.199Z,61.88
2019-05-10T13:49:31.403Z,62.71
2019-05-10T13:51:57.299Z,63.12
2019-05-10T13:54:23.109Z,62.61
2019-05-10T13:56:52.214Z,59.26
2019-05-10T13:59:18.069Z,58.19
2019-05-10T14:01:49.347Z,59.11
2019-05-10T14:04:12.269Z,57.80
2019-05-10T14:06:38.039Z,55.70
2019-05-10T14:09:07.190Z,54.84
2019-05-10T14:11:34.250Z,53.98
2019-05-10T14:14:00.801Z,54.63
2019-05-10T14:18:53.755Z,58.19
2019-05-10T14:21:19.579Z,58.35
2019-05-10T14:23:48.622Z,58.45
2019-05-10T14:26:16.457Z,57.26
2019-05-10T14:28:42.453Z,56.21
2019-05-10T14:31:08.255Z,57.50
2019-05-10T14:33:34.034Z,56.13
2019-05-10T14:36:03.493Z,56.88
2019-05-10T14:38:29.377Z,57.43
2019-05-10T14:40:55.193Z,58.00
2019-05-10T14:43:21.255Z,56.66
2019-05-10T14:45:50.210Z,58.14
2019-05-10T14:48:16.264Z,57.94
2019-05-10T14:50:46.825Z,56.89
2019-05-10T14:53:13.235Z,56.24
2019-05-10T14:55:39.018Z,53.71
2019-05-10T14:58:05.186Z,53.47
2019-05-10T15:00:33.997Z,55.18
2019-05-10T15:03:02.271Z,54.39
2019-05-10T15:05:27.661Z,52.64
2019-05-10T15:07:53.923Z,52.64
2019-05-10T15:10:19.732Z,52.74
2019-05-10T15:12:45.579Z,51.50
2019-05-10T15:15:11.487Z,50.83
2019-05-10T15:17:40.195Z,49.76
2019-05-10T15:20:06.179Z,49.05
2019-05-10T15:22:37.960Z,49.17
2019-05-10T15:25:04.587Z,51.70
2019-05-10T15:27:30.378Z,53.02
2019-05-10T15:29:58.557Z,53.02
2019-05-10T15:32:26.763Z,51.12
2019-05-10T15:35:05.116Z,51.09
2019-05-10T15:37:20.629Z,50.05
2019-05-10T15:39:46.668Z,49.75
2019-05-10T15:42:12.704Z,50.97
2019-05-10T15:44:38.796Z,51.14
2019-05-10T15:47:04.612Z,53.32
2019-05-10T15:49:33.530Z,53.32
2019-05-10T15:52:16.160Z,53.81
2019-05-10T15:54:27.351Z,54.39
2019-05-10T15:56:55.654Z,54.39
2019-05-10T15:59:21.528Z,53.36
2019-05-10T16:01:47.382Z,53.36
2019-05-10T16:04:15.998Z,55.42
2019-05-10T16:06:42.049Z,54.51
2019-05-10T16:09:17.571Z,54.50
2019-05-10T16:11:38.603Z,54.50
2019-05-10T16:14:04.390Z,52.21
2019-05-10T16:16:36.435Z,53.49
2019-05-10T16:18:57.910Z,53.33
2019-05-10T16:21:23.990Z,53.33
2019-05-10T16:23:49.800Z,52.86
2019-05-10T16:26:23.034Z,52.86
2019-05-10T16:28:46.546Z,54.38
2019-05-10T16:31:12.621Z,54.38
2019-05-10T16:33:38.401Z,59.81
2019-05-10T16:36:08.362Z,62.30
2019-05-10T16:38:34.347Z,63.92
2019-05-10T16:41:00.757Z,64.29
2019-05-10T16:43:26.700Z,65.27
2019-05-10T16:45:55.607Z,65.13
2019-05-10T16:48:21.678Z,65.55
2019-05-10T16:50:50.489Z,66.00
2019-05-10T16:53:16.558Z,65.86
2019-05-10T16:55:42.967Z,65.89
2019-05-10T16:58:09.443Z,67.03
2019-05-10T17:00:40.787Z,65.68
2019-05-10T17:03:04.653Z,66.34
2019-05-10T17:05:30.439Z,67.64
2019-05-10T17:07:58.862Z,66.66
2019-05-10T17:10:26.889Z,66.76
2019-05-10T17:12:52.132Z,67.33
2019-05-10T17:15:17.953Z,66.39
2019-05-10T17:17:45.317Z,65.75
2019-05-10T17:20:15.664Z,66.33
2019-05-10T17:22:40.972Z,67.52
2019-05-10T17:25:07.459Z,67.19
2019-05-10T17:27:36.153Z,67.14
2019-05-10T17:30:02.267Z,67.45
2019-05-10T17:32:28.088Z,67.67
2019-05-10T17:34:54.188Z,66.74
2019-05-10T17:37:19.964Z,67.28
2019-05-10T17:39:48.796Z,66.77
2019-05-10T17:42:14.614Z,65.95
2019-05-10T17:44:43.841Z,68.00
2019-05-10T17:47:09.709Z,67.11
2019-05-10T17:49:38.756Z,63.57
2019-05-10T17:52:04.593Z,63.57
2019-05-10T17:54:33.737Z,62.09
2019-05-10T17:57:01.033Z,62.85
2019-05-10T17:59:26.834Z,63.23
2019-05-10T18:01:52.923Z,62.70
2019-05-10T18:04:21.698Z,63.91
2019-05-10T18:06:47.531Z,63.87
2019-05-10T18:09:13.320Z,63.79
2019-05-10T18:11:42.949Z,63.61
2019-05-10T18:14:06.798Z,63.05
2019-05-10T18:16:32.583Z,63.72
2019-05-10T18:18:58.389Z,63.12
2019-05-10T18:21:27.559Z,63.32
2019-05-10T18:23:58.087Z,63.44
2019-05-10T18:26:21.582Z,62.87
2019-05-10T18:28:47.378Z,63.92
2019-05-10T18:31:16.306Z,63.79
2019-05-10T18:33:44.718Z,64.40
2019-05-10T18:36:12.981Z,63.97
2019-05-10T18:38:39.018Z,66.22
2019-05-10T18:41:10.141Z,68.26
2019-05-10T18:43:40.798Z,69.59
2019-05-10T18:46:03.662Z,70.39
2019-05-10T18:48:29.676Z,69.74
2019-05-10T18:50:55.742Z,70.34
2019-05-10T18:53:21.544Z,71.49
2019-05-10T18:55:47.333Z,71.95
2019-05-10T18:58:13.410Z,72.52
2019-05-10T19:00:40.308Z,71.10
2019-05-10T19:03:08.970Z,71.56
2019-05-10T19:05:34.778Z,72.26
2019-05-10T19:08:05.800Z,72.68
2019-05-10T19:10:31.337Z,72.87
2019-05-10T19:13:01.253Z,73.39
2019-05-10T19:15:24.891Z,72.66
2019-05-10T19:17:50.706Z,72.17
2019-05-10T19:20:18.383Z,72.39
2019-05-10T19:22:44.587Z,73.43
2019-05-10T19:25:12.236Z,72.82
2019-05-10T19:27:43.545Z,74.28
2019-05-10T19:30:06.831Z,74.25
2019-05-10T19:32:32.928Z,74.30
2019-05-10T19:34:59.033Z,74.43
2019-05-10T19:37:30.037Z,75.40
2019-05-10T19:39:52.742Z,76.15
2019-05-10T19:42:18.530Z,75.99
2019-05-10T19:44:47.426Z,76.14
2019-05-10T19:47:17.772Z,76.59
2019-05-10T19:49:45.931Z,77.30
2019-05-10T19:52:11.845Z,77.68
2019-05-10T19:54:37.642Z,76.54
2019-05-10T19:57:03.447Z,76.20
2019-05-10T19:59:29.221Z,76.67
2019-05-10T20:01:54.990Z,76.01
2019-05-10T20:04:20.807Z,76.10
2019-05-10T20:06:49.611Z,77.15
2019-05-10T20:09:15.462Z,77.99
2019-05-10T20:11:44.302Z,78.50
2019-05-10T20:14:10.473Z,78.92
2019-05-10T20:16:52.038Z,79.07
2019-05-10T20:19:09.197Z,78.26
2019-05-10T20:21:35.262Z,77.99
2019-05-10T20:24:01.203Z,77.67
2019-05-10T20:26:27.356Z,77.38
2019-05-10T20:28:53.166Z,77.46
2019-05-10T20:31:22.343Z,78.05
2019-05-10T20:33:48.427Z,78.45
2019-05-10T20:36:14.213Z,78.61
2019-05-10T20:38:40.090Z,77.99
2019-05-10T20:41:05.899Z,77.64
2019-05-10T20:43:34.870Z,78.34
2019-05-10T20:46:00.663Z,79.37
2019-05-10T20:48:29.442Z,79.71
2019-05-10T20:50:55.485Z,79.87
2019-05-10T20:53:24.031Z,79.32
2019-05-10T20:55:49.858Z,79.58
2019-05-10T20:58:18.707Z,80.37
2019-05-10T21:00:44.469Z,80.97
2019-05-10T21:03:13.301Z,81.58
2019-05-10T21:05:39.120Z,81.21
2019-05-10T21:08:16.637Z,80.49
2019-05-10T21:10:35.649Z,82.37
2019-05-10T21:13:01.454Z,84.03
2019-05-10T21:15:27.249Z,84.65
2019-05-10T21:17:53.294Z,85.51
2019-05-10T21:20:19.119Z,85.95
2019-05-10T21:22:45.596Z,86.15
2019-05-10T21:25:13.456Z,86.39
2019-05-10T21:27:39.259Z,86.98
2019-05-10T21:30:10.093Z,86.82
2019-05-10T21:32:35.926Z,86.99
2019-05-10T21:35:04.741Z,86.95
2019-05-10T21:37:30.786Z,85.57
2019-05-10T21:39:59.719Z,84.73
2019-05-10T21:42:25.805Z,84.46
2019-05-10T21:44:54.603Z,84.53
2019-05-10T21:47:20.408Z,84.32
2019-05-10T21:49:46.227Z,84.99
2019-05-10T21:52:12.024Z,86.06
2019-05-10T21:54:38.106Z,87.37
2019-05-10T21:57:03.912Z,87.92
2019-05-10T21:59:29.698Z,87.53
2019-05-10T22:01:58.653Z,87.08
2019-05-10T22:04:24.734Z,86.72
2019-05-10T22:06:53.705Z,86.75
2019-05-10T22:09:19.859Z,86.14
2019-05-10T22:11:48.405Z,87.58
2019-05-10T22:14:14.255Z,89.54
2019-05-10T22:16:43.108Z,89.95
2019-05-10T22:19:09.265Z,90.99
2019-05-10T22:21:38.097Z,92.25
2019-05-10T22:24:04.000Z,93.54
2019-05-10T22:26:30.050Z,93.91
2019-05-10T22:28:55.870Z,94.71
2019-05-10T22:31:22.001Z,96.07
2019-05-10T22:33:50.856Z,96.65
2019-05-10T22:36:16.970Z,97.88
2019-05-10T22:38:46.089Z,98.32
2019-05-10T22:41:11.870Z,99.10
2019-05-10T22:43:39.460Z,99.17
2019-05-10T22:46:05.255Z,99.46
2019-05-10T22:48:33.982Z,99.60
2019-05-10T22:50:59.754Z,99.84
2019-05-10T22:53:28.314Z,100.00
2019-05-10T22:55:54.155Z,100.00
2019-05-10T22:58:22.979Z,100.00
2019-05-10T23:00:48.910Z,100.00
2019-05-10T23:03:14.702Z,100.00
2019-05-10T23:05:40.811Z,100.00
2019-05-10T23:08:06.583Z,100.00
2019-05-10T23:10:35.129Z,100.00
2019-05-10T23:13:00.918Z,100.00
2019-05-10T23:15:29.479Z,100.00
2019-05-10T23:17:55.567Z,100.00
2019-05-10T23:20:24.376Z,100.00
2019-05-10T23:22:50.463Z,100.00
2019-05-10T23:25:19.319Z,100.00
2019-05-10T23:27:45.188Z,100.00
2019-05-10T23:30:14.095Z,100.00
2019-05-10T23:32:39.885Z,100.00
2019-05-10T23:35:08.982Z,100.00
2019-05-10T23:37:35.039Z,100.00
2019-05-10T23:40:00.917Z,100.00
2019-05-10T23:42:26.731Z,100.00
2019-05-10T23:44:52.539Z,100.00
2019-05-10T23:47:20.280Z,100.00
2019-05-10T23:49:46.364Z,100.00
2019-05-10T23:52:15.212Z,100.00
2019-05-10T23:54:40.989Z,100.00
2019-05-10T23:57:09.568Z,100.00
2019-05-10T23:59:35.366Z,100.00
